»·PEaware :: SWA1691 KLAS-KSNA

SWA1691 :: KLAS-KSNA

FLIGHT INFORMATION

Flight Status: Arrived
Operator:
Southwest Airlines
More flights by this operator :: More flights under this callsign
Pilot: Joe M. (18884)
Aircraft: BOEING 737-800
(B738)
More flights by this aircraft type
Origin: KLAS McCarran Intl
United States
Destination: KSNA John Wayne-Orange Co
United States
More flights between these airports :: More routes between these airports
Route: BOACH8 WHIGG FEYLA DSNEE4
File this flight plan on PilotEdge
Remarks:
Altitude:
(Current/Filed)
28,000ft
Speed:
(Current/Filed)
450kts
Departed: 10-Aug-18 07:34 AM
Arrived: 10-Aug-18 08:15 AM
Distance/Time
Traveled:
197nm/0:41
Distance/Time
To Go:
Arrived

Flight Plot

Page will automatically refresh every two minutes.

Flight plan parsing failed; only flown route is shown


Map Options




Map Legend


Flown Route
Filed Route
Departure Airport
Arrival Airport
Navaid (VOR, NDB)
Fix

Horizontal Profiles

Position Reports

Time Latitude Longitude Heading Altitude Ground
Speed
10-Aug-18 07:00 36.080941 -115.145908 270 2091ft 0kts
10-Aug-18 07:01 36.080941 -115.145908 270 2091ft 0kts
10-Aug-18 07:02 36.080941 -115.145908 270 2091ft 0kts
10-Aug-18 07:03 36.080941 -115.145908 270 2091ft 0kts
10-Aug-18 07:04 36.080941 -115.145908 270 2091ft 0kts
10-Aug-18 07:05 36.080941 -115.145908 270 2091ft 0kts
10-Aug-18 07:06 36.080941 -115.145908 270 2091ft 0kts
10-Aug-18 07:07 36.080941 -115.145908 270 2091ft 0kts
10-Aug-18 07:08 36.080941 -115.145908 270 2091ft 0kts
10-Aug-18 07:09 36.080941 -115.145908 270 2091ft 0kts
10-Aug-18 07:10 36.080941 -115.145908 270 2091ft 0kts
10-Aug-18 07:11 36.080941 -115.145908 270 2091ft 0kts
10-Aug-18 07:12 36.080941 -115.145907 270 2091ft 0kts
10-Aug-18 07:13 36.080941 -115.145907 270 2091ft 0kts
10-Aug-18 07:14 36.080941 -115.145907 270 2091ft 0kts
10-Aug-18 07:15 36.080941 -115.145907 270 2091ft 0kts
10-Aug-18 07:16 36.080941 -115.145907 270 2091ft 0kts
10-Aug-18 07:17 36.080940 -115.145531 270 2090ft 2kts
10-Aug-18 07:18 36.081269 -115.145185 155 2089ft 0kts
10-Aug-18 07:19 36.081329 -115.145228 150 2089ft 0kts
10-Aug-18 07:20 36.081329 -115.145228 150 2089ft 0kts
10-Aug-18 07:21 36.081329 -115.145228 150 2089ft 0kts
10-Aug-18 07:22 36.081329 -115.145228 150 2089ft 0kts
10-Aug-18 07:23 36.081329 -115.145228 150 2089ft 0kts
10-Aug-18 07:24 36.081329 -115.145228 150 2089ft 0kts
10-Aug-18 07:25 36.081329 -115.145228 150 2089ft 0kts
10-Aug-18 07:26 36.080878 -115.144926 158 2089ft 5kts
10-Aug-18 07:27 36.079882 -115.144814 182 2090ft 5kts
10-Aug-18 07:28 36.078272 -115.142242 91 2086ft 20kts
10-Aug-18 07:29 36.078258 -115.134243 86 2062ft 17kts
10-Aug-18 07:30 36.078263 -115.127810 92 2044ft 19kts
10-Aug-18 07:31 36.077771 -115.121892 128 2036ft 13kts
10-Aug-18 07:32 36.077458 -115.121460 142 2036ft 0kts
10-Aug-18 07:33 36.077458 -115.121460 142 2036ft 0kts
10-Aug-18 07:34 36.076363 -115.121551 278 2038ft 0kts
10-Aug-18 07:35 36.076393 -115.149939 267 2116ft 178kts
10-Aug-18 07:36 36.075912 -115.217377 269 3696ft 234kts
10-Aug-18 07:37 36.030989 -115.276849 198 5473ft 273kts
10-Aug-18 07:38 35.958618 -115.307690 187 8046ft 286kts
10-Aug-18 07:39 35.881445 -115.314210 183 10255ft 305kts
10-Aug-18 07:40 35.792607 -115.310133 172 12202ft 333kts
10-Aug-18 07:41 35.699045 -115.303180 192 14625ft 346kts
10-Aug-18 07:42 35.620422 -115.370553 227 17015ft 358kts
10-Aug-18 07:43 35.552468 -115.462477 228 19241ft 370kts
10-Aug-18 07:44 35.482405 -115.556962 228 21318ft 381kts
10-Aug-18 07:45 35.410646 -115.653904 227 23202ft 391kts
10-Aug-18 07:46 35.336693 -115.753453 227 24954ft 401kts
10-Aug-18 07:47 35.260961 -115.855045 227 26555ft 410kts
10-Aug-18 07:48 35.182067 -115.957884 226 28033ft 418kts
10-Aug-18 07:49 35.098040 -116.063826 226 28108ft 452kts
10-Aug-18 07:50 35.008925 -116.175794 226 28106ft 463kts
10-Aug-18 07:51 34.919277 -116.288035 226 28105ft 462kts
10-Aug-18 07:52 34.835148 -116.394007 227 28026ft 437kts
10-Aug-18 07:53 34.752030 -116.499781 227 26997ft 428kts
10-Aug-18 07:54 34.667866 -116.601027 219 25592ft 431kts
10-Aug-18 07:55 34.576860 -116.689862 218 23016ft 411kts
10-Aug-18 07:56 34.490527 -116.775484 222 20625ft 399kts
10-Aug-18 07:57 34.412790 -116.865497 223 18290ft 379kts
10-Aug-18 07:58 34.337599 -116.952628 222 16006ft 366kts
10-Aug-18 07:59 34.265708 -117.034609 216 14088ft 353kts
10-Aug-18 08:00 34.183382 -117.095306 209 13387ft 350kts
10-Aug-18 08:01 34.091880 -117.108332 162 12219ft 337kts
10-Aug-18 08:02 34.005942 -117.104893 212 11258ft 291kts
10-Aug-18 08:03 33.957809 -117.182553 236 11272ft 295kts
10-Aug-18 08:04 33.913888 -117.266006 237 9933ft 285kts
10-Aug-18 08:05 33.874677 -117.340379 237 9140ft 263kts
10-Aug-18 08:06 33.835718 -117.414102 237 8355ft 259kts
10-Aug-18 08:07 33.814077 -117.491134 290 8002ft 256kts
10-Aug-18 08:08 33.856344 -117.558889 311 7464ft 259kts
10-Aug-18 08:09 33.902014 -117.625788 296 5967ft 260kts
10-Aug-18 08:10 33.890736 -117.699064 241 4612ft 224kts
10-Aug-18 08:11 33.856602 -117.752925 214 3930ft 192kts
10-Aug-18 08:12 33.812495 -117.781998 207 2997ft 170kts
10-Aug-18 08:13 33.773653 -117.806639 207 2156ft 162kts
10-Aug-18 08:14 33.736220 -117.830422 207 1312ft 161kts
10-Aug-18 08:15 33.697636 -117.854774 207 476ft 155kts
10-Aug-18 08:16 33.670926 -117.871834 206 64ft 23kts
10-Aug-18 08:17 33.670793 -117.869143 39 64ft 23kts
10-Aug-18 08:18 33.675539 -117.865335 88 64ft 5kts
10-Aug-18 08:19 33.675363 -117.864856 118 64ft 0kts
10-Aug-18 08:20 33.675363 -117.864856 118 64ft 0kts
10-Aug-18 08:21 33.675363 -117.864856 118 64ft 0kts
10-Aug-18 08:22 33.675363 -117.864856 118 64ft 0kts
10-Aug-18 08:23 33.675363 -117.864856 118 64ft 0kts
10-Aug-18 08:24 33.675363 -117.864856 118 64ft 0kts
10-Aug-18 08:25 33.675363 -117.864856 118 64ft 0kts
10-Aug-18 08:26 33.675363 -117.864856 118 64ft 0kts
10-Aug-18 08:27 33.675363 -117.864856 118 64ft 0kts
10-Aug-18 08:28 33.675363 -117.864856 118 64ft 0kts
10-Aug-18 08:29 33.675363 -117.864856 118 64ft 0kts
10-Aug-18 08:30 33.675363 -117.864856 118 64ft 0kts

Navigation Log

Ident Type
Flight plan parsing failed, navigation log unavailable